Time;durP1;ratioP1;P1;durP2;ratioP2;P2;SDS_P1;SDS_P2;PMS_P1;PMS_P2;Temp;Humidity;BMP_temperature;BMP_pressure;BME280_temperature;BME280_humidity;BME280_pressure;Samples;Min_cycle;Max_cycle;Signal;HPM_P1;HPM_P2
2022/09/20 00:00:42;;;;;;;1.70;1.33;;;;;;;11.61;59.09;94740.25;4196730;28;20056;-64
2022/09/20 00:02:44;;;;;;;1.60;1.10;;;;;;;11.59;58.99;94731.72;4196867;28;20045;-65
2022/09/20 00:04:48;;;;;;;1.80;1.40;;;;;;;11.56;58.63;94735.50;4195693;28;20049;-65
2022/09/20 00:06:50;;;;;;;1.75;1.40;;;;;;;11.47;59.04;94734.69;4203136;28;20048;-66
2022/09/20 00:08:52;;;;;;;2.00;1.35;;;;;;;11.48;58.93;94749.44;4202227;28;20087;-65
2022/09/20 00:11:05;;;;;;;2.25;1.48;;;;;;;11.51;58.91;94734.34;4205308;28;20052;-64
2022/09/20 00:13:10;;;;;;;2.17;1.50;;;;;;;11.45;58.56;94735.84;4211188;28;20059;-65
2022/09/20 00:15:11;;;;;;;1.95;1.50;;;;;;;11.44;58.35;94740.28;4212536;28;20130;-64
2022/09/20 00:17:13;;;;;;;2.25;1.63;;;;;;;11.44;58.07;94742.06;4212631;28;20044;-63
2022/09/20 00:19:19;;;;;;;1.92;1.38;;;;;;;11.57;58.19;94738.94;4212350;28;20048;-65
2022/09/20 00:21:26;;;;;;;1.98;1.63;;;;;;;11.60;58.02;94733.38;4211607;28;20504;-64
2022/09/20 00:23:29;;;;;;;2.92;1.90;;;;;;;11.54;58.08;94734.84;4212531;28;20054;-65
2022/09/20 00:25:30;;;;;;;1.90;1.58;;;;;;;11.36;58.42;94727.16;4210871;28;20189;-66
2022/09/20 00:27:32;;;;;;;2.00;1.60;;;;;;;11.35;58.46;94732.53;4211297;28;20067;-57
2022/09/20 00:29:34;;;;;;;1.80;1.42;;;;;;;11.28;58.71;94730.56;4209593;28;20561;-58
2022/09/20 00:31:37;;;;;;;1.60;1.30;;;;;;;11.35;58.54;94733.38;4209966;28;20128;-57
2022/09/20 00:35:59;;;;;;;2.90;1.50;;;;;;;11.34;58.74;94730.94;4210578;28;20000;-60
2022/09/20 00:38:01;;;;;;;2.13;1.40;;;;;;;11.30;58.72;94730.41;4212394;28;20048;-58
2022/09/20 00:40:04;;;;;;;1.98;1.35;;;;;;;11.38;58.54;94732.22;4207433;28;20043;-59
2022/09/20 00:42:08;;;;;;;1.90;1.40;;;;;;;11.33;58.66;94731.88;4199992;28;20039;-58
2022/09/20 00:44:46;;;;;;;2.58;1.70;;;;;;;11.35;58.77;94735.97;4210869;28;20048;-59
2022/09/20 00:46:48;;;;;;;1.60;1.30;;;;;;;11.32;58.66;94738.94;4208028;28;20071;-59
2022/09/20 00:48:52;;;;;;;2.00;1.60;;;;;;;11.34;58.77;94731.75;4208945;28;21579;-59
2022/09/20 00:50:58;;;;;;;2.15;1.30;;;;;;;11.33;58.55;94743.19;4195950;28;20052;-60
2022/09/20 00:53:25;;;;;;;2.13;1.40;;;;;;;11.23;58.99;94742.56;4204739;28;20075;-57
2022/09/20 00:55:27;;;;;;;2.05;1.30;;;;;;;11.18;59.05;94735.13;4207106;28;20131;-58
2022/09/20 00:57:34;;;;;;;2.92;1.58;;;;;;;11.16;59.11;94744.97;4201857;28;20458;-58
2022/09/20 00:59:39;;;;;;;2.22;1.40;;;;;;;11.12;58.89;94741.06;4200878;28;20052;-56
2022/09/20 01:01:42;;;;;;;1.50;1.10;;;;;;;11.14;58.77;94751.34;4195499;28;20063;-58
2022/09/20 01:03:45;;;;;;;2.00;1.17;;;;;;;11.15;58.17;94739.91;4206966;28;20135;-60
2022/09/20 01:05:46;;;;;;;1.90;1.25;;;;;;;11.20;57.85;94745.47;4210043;28;20046;-59
2022/09/20 01:07:49;;;;;;;1.63;1.30;;;;;;;11.12;57.56;94748.06;4211737;28;20147;-59
2022/09/20 01:09:51;;;;;;;3.25;1.40;;;;;;;11.16;57.29;94731.84;4204399;28;20072;-59
2022/09/20 01:11:54;;;;;;;1.67;1.30;;;;;;;11.10;57.50;94735.16;4201680;28;20382;-59
2022/09/20 01:13:56;;;;;;;2.53;1.40;;;;;;;11.10;57.56;94736.94;4203117;28;20087;-59
2022/09/20 01:16:00;;;;;;;1.65;1.20;;;;;;;11.12;57.55;94740.22;4195911;28;20143;-58
2022/09/20 01:18:05;;;;;;;3.03;1.30;;;;;;;11.11;57.03;94738.59;4194175;28;20073;-62
2022/09/20 01:20:08;;;;;;;;;;;;;;;11.12;57.21;94734.97;4208808;28;20048;-65
2022/09/20 01:22:20;;;;;;;1.52;1.23;;;;;;;11.09;56.97;94740.53;4202678;28;19958;-65
2022/09/20 01:24:27;;;;;;;1.92;1.38;;;;;;;11.07;56.60;94744.13;4208371;28;20083;-64
2022/09/20 01:26:46;;;;;;;1.75;1.17;;;;;;;11.20;55.91;94738.41;4196104;28;20554;-67
2022/09/20 01:28:49;;;;;;;2.03;1.42;;;;;;;11.30;55.54;94727.78;4205933;28;20052;-65
2022/09/20 01:31:45;;;;;;;1.65;1.27;;;;;;;11.29;55.42;94734.00;4199741;28;20139;-65
2022/09/20 01:33:57;;;;;;;1.55;1.27;;;;;;;11.28;55.37;94729.75;4172583;28;20399;-65
2022/09/20 01:36:02;;;;;;;2.08;1.50;;;;;;;11.26;55.34;94729.09;4208107;28;20453;-65
2022/09/20 01:38:32;;;;;;;1.70;1.40;;;;;;;11.20;55.72;94735.00;4209449;28;20634;-64
2022/09/20 01:41:18;;;;;;;2.05;1.25;;;;;;;11.17;55.66;94730.91;4208486;28;20075;-64
2022/09/20 01:43:38;;;;;;;;;;;;;;;11.20;55.91;94732.38;4199905;28;20440;-66
2022/09/20 01:45:45;;;;;;;2.03;1.27;;;;;;;11.19;55.98;94735.97;4211260;28;20072;-66
2022/09/20 01:47:56;;;;;;;2.08;1.30;;;;;;;11.19;56.08;94728.13;4210170;28;20098;-66
2022/09/20 01:50:27;;;;;;;2.83;1.60;;;;;;;11.14;55.82;94743.50;4210727;28;20060;-66
2022/09/20 01:52:34;;;;;;;2.35;1.75;;;;;;;11.16;55.92;94752.84;4208163;28;20058;-65
2022/09/20 01:54:48;;;;;;;1.80;1.45;;;;;;;10.99;56.43;94746.75;4202976;28;20135;-65
2022/09/20 01:57:08;;;;;;;1.70;1.40;;;;;;;10.98;56.74;94744.28;4196734;28;20139;-65
2022/09/20 01:59:15;;;;;;;1.90;1.50;;;;;;;10.87;57.03;94742.78;4211454;28;20060;-65
2022/09/20 02:01:31;;;;;;;2.90;1.42;;;;;;;10.88;57.00;94739.19;4201909;28;20131;-64
2022/09/20 02:03:36;;;;;;;2.80;1.83;;;;;;;10.99;56.87;94733.66;4202252;28;20456;-65
2022/09/20 02:05:46;;;;;;;2.42;1.65;;;;;;;10.94;57.39;94728.06;4204061;28;20078;-66
2022/09/20 02:08:07;;;;;;;3.30;1.70;;;;;;;10.89;57.41;94709.38;4213474;28;20080;-67
2022/09/20 02:10:19;;;;;;;2.20;1.90;;;;;;;10.85;57.63;94718.53;4197816;28;20143;-64
2022/09/20 02:12:42;;;;;;;2.17;1.73;;;;;;;10.86;57.41;94710.53;4208532;28;20074;-65
2022/09/20 02:15:02;;;;;;;3.33;1.77;;;;;;;10.93;57.11;94709.91;4202086;28;20804;-66
2022/09/20 02:17:12;;;;;;;2.20;1.77;;;;;;;10.88;57.18;94709.53;4213364;28;20138;-67
2022/09/20 02:19:26;;;;;;;2.22;1.52;;;;;;;10.83;57.18;94715.25;4213322;28;20051;-65
2022/09/20 02:21:47;;;;;;;2.30;1.90;;;;;;;10.88;57.00;94720.03;4212059;28;20127;-64
2022/09/20 02:24:13;;;;;;;2.20;1.90;;;;;;;10.77;57.24;94714.09;4211601;28;20127;-65
2022/09/20 02:26:32;;;;;;;2.15;1.80;;;;;;;10.62;57.85;94713.88;4209865;28;20068;-66
2022/09/20 02:29:00;;;;;;;2.53;1.65;;;;;;;10.50;58.15;94715.16;4211493;28;20076;-66
2022/09/20 02:31:15;;;;;;;2.55;1.60;;;;;;;10.36;58.22;94718.38;4211430;28;20507;-65
2022/09/20 02:33:35;;;;;;;3.42;1.60;;;;;;;10.40;58.80;94717.91;4210817;28;20036;-65
2022/09/20 02:36:06;;;;;;;2.58;1.85;;;;;;;10.42;58.62;94717.75;4208352;28;20047;-65
2022/09/20 02:38:17;;;;;;;3.05;1.88;;;;;;;10.41;58.92;94722.16;4206301;28;20075;-65
2022/09/20 02:40:40;;;;;;;2.25;1.80;;;;;;;10.43;58.88;94719.38;4210689;28;20125;-66
2022/09/20 02:43:03;;;;;;;3.15;1.90;;;;;;;10.32;59.68;94724.91;4204087;28;20043;-63
2022/09/20 02:45:05;;;;;;;3.88;2.03;;;;;;;10.29;59.90;94730.44;4204198;28;20058;-64
2022/09/20 02:47:36;;;;;;;2.33;1.70;;;;;;;10.21;60.81;94737.25;4204254;28;20058;-64
2022/09/20 02:50:13;;;;;;;2.40;1.85;;;;;;;10.03;61.74;94737.31;4207968;28;20072;-65
2022/09/20 02:52:39;;;;;;;2.65;2.00;;;;;;;9.97;61.98;94740.56;4198804;28;20127;-65
2022/09/20 02:55:00;;;;;;;2.45;1.77;;;;;;;10.00;62.02;94739.41;4204390;28;20062;-64
2022/09/20 02:57:05;;;;;;;2.10;1.90;;;;;;;9.98;62.34;94728.28;4210481;28;20048;-64
2022/09/20 02:59:36;;;;;;;2.88;2.30;;;;;;;10.04;61.53;94728.50;4208501;28;20079;-62
2022/09/20 03:01:47;;;;;;;2.47;1.92;;;;;;;10.05;61.76;94730.13;4210143;28;20135;-63
2022/09/20 03:03:55;;;;;;;2.95;2.03;;;;;;;9.94;62.03;94734.81;4215187;28;20558;-63
2022/09/20 03:06:05;;;;;;;2.20;1.95;;;;;;;9.99;61.60;94737.78;4199322;28;20138;-66
2022/09/20 03:08:42;;;;;;;2.30;1.90;;;;;;;10.04;61.99;94733.75;4197176;28;20131;-65
2022/09/20 03:11:20;;;;;;;3.05;2.13;;;;;;;9.91;61.77;94735.13;4195145;28;20072;-62
2022/09/20 03:13:51;;;;;;;2.58;1.92;;;;;;;9.92;62.06;94726.31;4204680;28;20139;-65
2022/09/20 03:16:13;;;;;;;3.15;2.03;;;;;;;9.91;62.24;94735.94;4211961;28;20267;-65
2022/09/20 03:18:18;;;;;;;2.58;1.80;;;;;;;9.87;62.03;94731.16;4208482;28;20052;-66
2022/09/20 03:20:34;;;;;;;2.30;1.90;;;;;;;9.88;62.27;94740.66;4197181;28;21117;-66
2022/09/20 03:22:36;;;;;;;3.17;1.80;;;;;;;9.92;61.92;94739.38;4210268;28;20134;-66
2022/09/20 03:24:53;;;;;;;2.25;1.75;;;;;;;10.01;61.42;94735.84;4198824;28;20135;-65
2022/09/20 03:26:57;;;;;;;2.40;2.00;;;;;;;9.95;61.53;94747.72;4199089;28;20052;-65
2022/09/20 03:28:59;;;;;;;2.40;1.70;;;;;;;9.98;61.79;94746.59;4211159;28;20209;-64
2022/09/20 03:31:10;;;;;;;2.63;2.00;;;;;;;9.87;61.58;94750.28;4210035;28;20048;-65
2022/09/20 03:33:42;;;;;;;2.47;1.60;;;;;;;9.87;61.94;94747.69;4205736;28;20071;-59
2022/09/20 03:36:10;;;;;;;1.92;1.55;;;;;;;9.84;62.05;94748.81;4210483;28;20048;-59
2022/09/20 03:38:28;;;;;;;4.28;1.60;;;;;;;9.96;61.67;94744.16;4210890;28;20440;-59
2022/09/20 03:40:58;;;;;;;2.50;1.90;;;;;;;10.03;61.24;94749.59;4210547;28;20456;-57
2022/09/20 03:43:10;;;;;;;3.35;1.58;;;;;;;10.07;60.83;94750.94;4201707;28;20100;-57
2022/09/20 03:45:49;;;;;;;2.55;1.80;;;;;;;9.96;60.86;94753.78;4211005;28;20086;-59
2022/09/20 03:48:08;;;;;;;3.80;1.77;;;;;;;9.96;60.88;94753.78;4202337;28;20043;-59
2022/09/20 03:50:34;;;;;;;1.85;1.55;;;;;;;9.99;61.33;94743.84;4200283;28;20055;-59
2022/09/20 03:52:58;;;;;;;2.15;1.60;;;;;;;10.02;60.71;94746.16;4201751;28;20135;-58
2022/09/20 03:55:15;;;;;;;2.00;1.60;;;;;;;10.03;60.58;94744.34;4198630;28;20131;-58
2022/09/20 03:57:35;;;;;;;4.57;1.98;;;;;;;10.03;60.20;94741.75;4200675;28;20055;-59
2022/09/20 03:59:50;;;;;;;4.45;1.50;;;;;;;10.09;60.07;94748.97;4210789;28;20147;-58
2022/09/20 04:01:55;;;;;;;2.45;1.75;;;;;;;10.05;60.21;94750.25;4211362;28;20628;-57
2022/09/20 04:04:31;;;;;;;2.35;1.73;;;;;;;10.11;60.03;94746.19;4212108;28;20052;-57
2022/09/20 04:06:41;;;;;;;2.50;1.85;;;;;;;10.08;60.16;94752.56;4212275;28;20056;-61
2022/09/20 04:09:08;;;;;;;2.17;1.80;;;;;;;10.17;60.09;94762.09;4212805;28;20048;-59
2022/09/20 04:11:28;;;;;;;2.13;1.73;;;;;;;10.21;59.52;94763.44;4209799;28;20056;-59
2022/09/20 04:13:44;;;;;;;3.78;1.85;;;;;;;10.25;59.76;94770.00;4210724;28;20122;-59
2022/09/20 04:16:18;;;;;;;2.10;1.70;;;;;;;10.17;59.86;94766.50;4210309;28;20791;-59
2022/09/20 04:18:19;;;;;;;3.72;2.00;;;;;;;10.20;59.81;94777.50;4207002;28;20044;-60
2022/09/20 04:20:39;;;;;;;2.72;1.88;;;;;;;10.27;59.90;94769.03;4204250;28;20048;-58
2022/09/20 04:22:42;;;;;;;1.92;1.60;;;;;;;10.29;59.90;94772.31;4197497;28;20084;-60
2022/09/20 04:24:51;;;;;;;2.63;1.97;;;;;;;10.31;59.75;94773.03;4206989;28;20048;-59
2022/09/20 04:27:24;;;;;;;3.00;1.88;;;;;;;10.34;59.99;94778.75;4204133;28;20319;-57
2022/09/20 04:29:33;;;;;;;2.72;1.90;;;;;;;10.41;60.05;94785.03;4207006;28;20094;-58
2022/09/20 04:31:40;;;;;;;4.00;2.17;;;;;;;10.42;59.78;94783.22;4196366;28;20083;-58
2022/09/20 04:33:44;;;;;;;2.80;2.10;;;;;;;10.42;59.93;94780.59;4212369;28;20040;-59
2022/09/20 04:36:30;;;;;;;3.92;1.98;;;;;;;10.44;60.07;94787.31;4201356;28;20131;-57
2022/09/20 04:38:34;;;;;;;2.63;1.92;;;;;;;10.34;60.13;94788.41;4196021;28;20426;-59
2022/09/20 04:40:46;;;;;;;3.33;2.17;;;;;;;10.44;60.33;94791.75;4210570;28;20051;-57
2022/09/20 04:43:06;;;;;;;3.38;2.20;;;;;;;10.53;59.96;94789.97;4195555;28;20396;-59
2022/09/20 04:45:12;;;;;;;4.22;2.42;;;;;;;10.63;59.56;94798.56;4195900;28;20105;-58
2022/09/20 04:47:35;;;;;;;3.58;2.15;;;;;;;10.69;59.21;94794.47;4209534;28;20056;-59
2022/09/20 04:50:10;;;;;;;4.85;2.08;;;;;;;10.67;59.14;94792.03;4211660;28;20132;-60
2022/09/20 04:52:48;;;;;;;2.60;1.85;;;;;;;10.66;58.59;94790.38;4210704;28;20447;-60
2022/09/20 04:55:11;;;;;;;3.72;2.05;;;;;;;10.74;58.85;94795.66;4209634;28;20091;-60
2022/09/20 04:57:38;;;;;;;3.95;2.20;;;;;;;10.88;58.32;94793.41;4198410;28;20048;-59
2022/09/20 05:00:06;;;;;;;4.70;2.00;;;;;;;10.98;57.92;94792.28;4210853;28;20062;-61
2022/09/20 05:02:19;;;;;;;3.63;2.03;;;;;;;11.01;57.37;94794.59;4198807;28;20095;-60
2022/09/20 05:04:27;;;;;;;4.82;1.73;;;;;;;11.05;57.63;94790.66;4211294;28;20101;-61
2022/09/20 05:06:47;;;;;;;3.97;2.10;;;;;;;11.00;57.01;94790.34;4210483;28;20079;-60
2022/09/20 05:09:05;;;;;;;2.95;1.70;;;;;;;10.95;57.58;94792.63;4212055;28;20135;-61
2022/09/20 05:11:29;;;;;;;2.83;1.90;;;;;;;11.01;58.04;94796.38;4208805;28;20138;-66
2022/09/20 05:14:11;;;;;;;3.10;1.90;;;;;;;11.07;57.25;94798.38;4211609;28;20055;-71
2022/09/20 05:16:42;;;;;;;4.55;1.98;;;;;;;11.17;57.43;94806.94;4195544;28;20284;-67
2022/09/20 05:19:12;;;;;;;2.90;2.22;;;;;;;11.25;57.02;94804.34;4198805;28;20057;-65
2022/09/20 05:21:36;;;;;;;3.22;2.05;;;;;;;11.32;57.14;94811.56;4199651;28;20044;-67
2022/09/20 05:24:04;;;;;;;4.75;1.90;;;;;;;11.30;57.13;94805.66;4182313;28;20427;-65
2022/09/20 05:26:21;;;;;;;4.68;2.10;;;;;;;11.30;57.17;94803.03;4177610;28;20131;-67
2022/09/20 05:28:23;;;;;;;3.25;2.30;;;;;;;11.36;57.12;94807.66;4210307;28;20052;-67
2022/09/20 05:30:34;;;;;;;2.10;1.73;;;;;;;11.27;57.36;94804.16;4209875;28;20135;-67
2022/09/20 05:32:38;;;;;;;3.88;2.00;;;;;;;11.28;57.27;94805.81;4210439;28;20625;-67
2022/09/20 05:34:59;;;;;;;2.58;1.80;;;;;;;11.38;57.10;94809.13;4210783;28;20047;-66
2022/09/20 05:37:27;;;;;;;2.20;1.75;;;;;;;11.37;57.13;94815.34;4207312;28;20114;-68
2022/09/20 05:39:44;;;;;;;3.03;1.80;;;;;;;11.42;57.26;94820.94;4210868;28;20056;-65
2022/09/20 05:41:59;;;;;;;3.03;1.90;;;;;;;10.98;58.67;94812.44;4209703;28;20052;-66
2022/09/20 05:44:29;;;;;;;2.30;1.80;;;;;;;11.00;58.54;94810.50;4209719;28;20091;-67
2022/09/20 05:46:44;;;;;;;2.17;1.70;;;;;;;11.01;58.54;94810.34;4202587;28;20424;-70
2022/09/20 05:48:54;;;;;;;;;;;;;;;11.25;57.73;94808.78;4210717;28;20075;-65
2022/09/20 05:51:08;;;;;;;2.17;1.52;;;;;;;11.41;57.05;94802.72;4198952;28;20273;-66
2022/09/20 05:53:21;;;;;;;2.75;2.10;;;;;;;11.33;57.58;94806.13;4209497;28;20083;-66
2022/09/20 05:55:53;;;;;;;2.20;1.73;;;;;;;11.43;57.15;94800.75;4208141;28;20043;-65
2022/09/20 05:58:23;;;;;;;3.25;1.95;;;;;;;11.57;56.90;94801.91;4209945;28;20052;-66
2022/09/20 06:00:29;;;;;;;4.05;2.05;;;;;;;11.63;56.75;94801.28;4205680;28;20553;-63
2022/09/20 06:02:40;;;;;;;3.80;1.73;;;;;;;11.64;56.47;94802.94;4217333;28;20052;-69
2022/09/20 06:04:51;;;;;;;3.03;1.45;;;;;;;11.65;56.32;94807.19;4199899;28;20571;-70
2022/09/20 06:07:02;;;;;;;2.20;1.60;;;;;;;11.70;56.12;94804.88;4209273;28;20524;-66
2022/09/20 06:09:15;;;;;;;2.28;1.20;;;;;;;11.77;56.02;94803.25;4211155;28;20090;-67
2022/09/20 06:11:29;;;;;;;1.70;1.40;;;;;;;11.78;55.67;94804.06;4192548;28;20131;-67
2022/09/20 06:14:08;;;;;;;2.00;1.40;;;;;;;11.75;56.12;94813.09;4195546;28;20045;-65
2022/09/20 06:16:24;;;;;;;3.90;1.92;;;;;;;11.89;56.06;94809.00;4195346;28;20746;-68
2022/09/20 06:18:30;;;;;;;5.68;2.58;;;;;;;11.67;56.53;94810.47;4202707;28;20052;-66
2022/09/20 06:20:38;;;;;;;3.13;2.30;;;;;;;11.70;56.31;94807.50;4209979;28;20138;-66
2022/09/20 06:22:51;;;;;;;5.88;2.22;;;;;;;11.83;56.17;94807.84;4213568;28;20142;-61
2022/09/20 06:25:08;;;;;;;3.42;1.60;;;;;;;11.97;55.83;94805.56;4208123;28;20102;-60
2022/09/20 06:27:18;;;;;;;2.40;1.55;;;;;;;12.06;55.56;94807.22;4209663;28;20135;-60
2022/09/20 06:29:34;;;;;;;2.47;1.42;;;;;;;11.92;55.83;94813.94;4206589;28;20120;-58
2022/09/20 06:31:36;;;;;;;2.85;1.95;;;;;;;11.94;56.36;94819.00;4194997;28;20070;-61
2022/09/20 06:33:54;;;;;;;3.58;2.00;;;;;;;11.72;57.53;94810.78;4208304;28;20082;-60
2022/09/20 06:43:19;;;;;;;2.53;1.58;;;;;;;11.74;57.22;94814.06;4209948;28;20127;-58
2022/09/20 06:45:20;;;;;;;3.45;2.10;;;;;;;11.97;57.32;94810.81;4210930;28;20136;-58
2022/09/20 06:47:22;;;;;;;4.97;2.65;;;;;;;12.00;57.20;94816.59;4209239;28;20135;-59
2022/09/20 06:49:26;;;;;;;1.90;1.10;;;;;;;11.93;56.45;94805.06;4213304;28;20098;-59
2022/09/20 06:51:33;;;;;;;1.80;1.02;;;;;;;11.93;55.97;94812.13;4213652;28;20485;-59
2022/09/20 06:53:39;;;;;;;1.70;1.30;;;;;;;11.95;56.04;94815.44;4210919;28;20074;-58
2022/09/20 06:55:42;;;;;;;2.97;1.67;;;;;;;12.07;56.01;94806.25;4204862;28;20044;-59
2022/09/20 06:57:44;;;;;;;9.10;2.90;;;;;;;12.13;55.83;94809.97;4208480;28;20519;-60
2022/09/20 06:59:46;;;;;;;7.15;2.30;;;;;;;12.19;55.38;94812.78;4211152;28;20319;-59
2022/09/20 07:01:48;;;;;;;2.67;1.75;;;;;;;12.23;54.51;94815.88;4211047;28;20076;-58
2022/09/20 07:03:50;;;;;;;2.17;1.40;;;;;;;12.28;54.33;94830.19;4212742;28;20094;-59
2022/09/20 07:05:51;;;;;;;3.60;1.20;;;;;;;12.36;54.01;94813.56;4212869;28;20040;-58
2022/09/20 07:07:57;;;;;;;2.53;1.20;;;;;;;12.49;54.14;94816.50;4213437;28;20063;-59
2022/09/20 07:09:59;;;;;;;1.83;1.30;;;;;;;12.67;53.32;94813.66;4211520;28;20052;-61
2022/09/20 07:12:00;;;;;;;4.35;1.38;;;;;;;12.71;52.84;94827.28;4212543;28;20050;-60
2022/09/20 07:14:02;;;;;;;2.17;1.15;;;;;;;12.48;52.98;94821.94;4213161;28;20056;-60
2022/09/20 07:16:08;;;;;;;3.40;1.52;;;;;;;12.50;53.20;94815.50;4212451;28;20134;-59
2022/09/20 07:18:09;;;;;;;3.33;1.50;;;;;;;12.49;53.75;94813.06;4204269;28;21662;-60
2022/09/20 07:20:12;;;;;;;2.20;1.23;;;;;;;12.60;53.28;94819.75;4210824;28;20952;-61
2022/09/20 07:22:17;;;;;;;2.97;1.42;;;;;;;12.69;52.94;94818.75;4212382;28;20050;-59
2022/09/20 07:24:19;;;;;;;2.90;1.55;;;;;;;12.80;53.09;94818.41;4208958;28;20051;-59
2022/09/20 07:26:25;;;;;;;5.50;2.03;;;;;;;12.73;53.10;94819.22;4210140;28;20154;-59
2022/09/20 07:28:28;;;;;;;2.55;1.63;;;;;;;12.73;52.24;94832.38;4207768;28;20456;-60
2022/09/20 07:30:29;;;;;;;2.55;1.23;;;;;;;12.92;52.30;94818.84;4208417;28;20048;-61
2022/09/20 07:32:31;;;;;;;2.13;1.40;;;;;;;13.03;52.82;94821.06;4212049;28;20147;-59
2022/09/20 07:34:33;;;;;;;11.52;1.88;;;;;;;13.17;52.41;94827.44;4208661;28;20474;-60
2022/09/20 07:36:35;;;;;;;5.50;2.22;;;;;;;13.27;51.87;94814.06;4207187;28;20095;-62
2022/09/20 07:38:38;;;;;;;2.50;1.58;;;;;;;12.80;51.93;94817.56;4211438;28;20143;-60
2022/09/20 07:40:40;;;;;;;5.20;2.50;;;;;;;13.04;52.19;94824.56;4210388;28;20043;-59
2022/09/20 07:42:44;;;;;;;3.40;1.30;;;;;;;13.06;52.31;94817.31;4209734;28;20045;-66
2022/09/20 07:44:46;;;;;;;4.15;2.45;;;;;;;13.10;52.28;94816.78;4196458;28;20048;-67
2022/09/20 07:46:51;;;;;;;3.20;1.70;;;;;;;13.15;51.62;94812.84;4196578;28;20052;-68
2022/09/20 07:48:53;;;;;;;7.85;3.92;;;;;;;13.18;51.54;94815.09;4197715;28;20119;-69
2022/09/20 07:50:57;;;;;;;2.90;1.55;;;;;;;13.35;50.89;94807.97;4212405;28;20140;-67
2022/09/20 07:52:59;;;;;;;6.15;3.58;;;;;;;13.49;51.28;94797.53;4212002;28;20056;-67
2022/09/20 07:55:01;;;;;;;5.80;3.33;;;;;;;13.17;51.06;94811.66;4211343;28;20052;-66
2022/09/20 07:57:04;;;;;;;3.40;2.20;;;;;;;13.21;51.69;94807.69;4207349;28;20048;-66
2022/09/20 07:59:06;;;;;;;4.15;1.85;;;;;;;13.43;50.23;94803.50;4211538;28;20044;-65
2022/09/20 08:01:11;;;;;;;2.53;1.33;;;;;;;12.98;50.65;94805.00;4211514;28;20044;-64
2022/09/20 08:03:13;;;;;;;4.60;1.25;;;;;;;13.30;49.95;94805.88;4211034;28;20051;-65
2022/09/20 08:05:14;;;;;;;1.50;0.98;;;;;;;13.56;49.37;94802.09;4208260;28;20123;-66
2022/09/20 08:07:17;;;;;;;5.30;1.30;;;;;;;13.70;47.89;94793.44;4209368;28;20555;-67
2022/09/20 08:09:19;;;;;;;1.95;1.20;;;;;;;13.83;47.56;94800.75;4212443;28;20052;-66
2022/09/20 08:11:24;;;;;;;1.88;1.10;;;;;;;13.32;50.70;94804.69;4211184;28;20047;-64
2022/09/20 08:13:28;;;;;;;1.95;1.02;;;;;;;13.68;49.63;94798.88;4211699;28;20138;-67
2022/09/20 08:15:50;;;;;;;2.67;1.08;;;;;;;14.11;47.69;94798.38;4198874;28;20432;-66
2022/09/20 08:17:52;;;;;;;1.58;1.10;;;;;;;14.50;47.19;94794.72;4212215;28;20494;-65
2022/09/20 08:19:53;;;;;;;4.70;1.17;;;;;;;14.65;46.71;94805.31;4212019;28;20048;-65
2022/09/20 08:21:55;;;;;;;3.28;1.58;;;;;;;14.46;46.62;94806.63;4211782;28;20091;-67
2022/09/20 08:23:58;;;;;;;2.08;1.30;;;;;;;13.65;47.57;94811.56;4212053;28;20051;-65
2022/09/20 08:26:01;;;;;;;1.52;0.90;;;;;;;13.93;47.82;94807.41;4211218;28;20048;-69
2022/09/20 08:28:02;;;;;;;3.13;1.00;;;;;;;13.84;47.19;94811.09;4204966;28;20103;-68
2022/09/20 08:30:05;;;;;;;2.40;1.15;;;;;;;13.79;47.69;94807.34;4196198;28;20048;-68
2022/09/20 08:32:06;;;;;;;1.85;0.95;;;;;;;13.50;48.45;94809.69;4209501;28;20135;-69
2022/09/20 08:34:11;;;;;;;3.58;1.50;;;;;;;12.95;49.29;94802.72;4196035;28;20049;-66
2022/09/20 08:36:14;;;;;;;3.60;1.15;;;;;;;13.13;49.17;94796.41;4203540;28;20051;-70
2022/09/20 08:38:16;;;;;;;;;;;;;;;13.29;48.60;94801.59;4212209;28;20118;-66
2022/09/20 08:40:38;;;;;;;1.60;0.80;;;;;;;13.49;47.99;94791.47;4201391;28;20387;-67
2022/09/20 08:42:43;;;;;;;1.10;0.75;;;;;;;13.62;47.75;94794.31;4207300;28;20579;-69
2022/09/20 08:44:51;;;;;;;1.65;1.00;;;;;;;13.78;47.88;94792.56;4209149;28;20288;-70
2022/09/20 08:47:20;;;;;;;1.40;0.85;;;;;;;13.81;47.80;94797.47;4205773;28;20077;-67
2022/09/20 08:49:25;;;;;;;3.50;0.95;;;;;;;13.93;47.22;94788.16;4209054;28;20048;-67
2022/09/20 08:51:31;;;;;;;1.73;0.90;;;;;;;14.38;46.62;94794.34;4210915;28;20066;-67
2022/09/20 08:53:33;;;;;;;1.38;0.80;;;;;;;14.75;45.85;94790.00;4209078;28;20076;-66
2022/09/20 08:55:38;;;;;;;2.00;1.10;;;;;;;14.83;45.28;94778.56;4192360;28;20177;-67
2022/09/20 08:57:40;;;;;;;2.47;0.95;;;;;;;15.02;45.67;94780.63;4208942;28;20075;-69
2022/09/20 08:59:42;;;;;;;1.65;0.85;;;;;;;15.00;45.04;94781.81;4206730;28;20066;-67
2022/09/20 09:01:44;;;;;;;2.05;1.20;;;;;;;15.07;45.15;94778.25;4204691;28;20068;-64
2022/09/20 09:03:46;;;;;;;1.73;1.10;;;;;;;15.09;45.14;94780.72;4211016;28;20071;-69
2022/09/20 09:05:52;;;;;;;3.67;1.20;;;;;;;15.05;44.77;94772.34;4207082;28;20130;-69
2022/09/20 09:07:54;;;;;;;2.53;0.85;;;;;;;15.20;44.60;94771.50;4211601;28;20147;-67
2022/09/20 09:09:56;;;;;;;1.98;0.95;;;;;;;15.25;44.43;94775.22;4210127;28;20082;-65
2022/09/20 09:11:57;;;;;;;4.63;1.23;;;;;;;14.85;44.62;94760.75;4210542;28;20079;-65
2022/09/20 09:14:47;;;;;;;4.00;1.45;;;;;;;14.68;45.34;94768.84;4211430;28;20159;-65
2022/09/20 09:16:32;;;;;;;1.10;0.90;;;;;;;14.25;45.96;94760.69;4199800;28;20420;-66
2022/09/20 09:18:39;;;;;;;2.55;0.93;;;;;;;14.62;45.95;94763.47;4204474;28;20056;-67
2022/09/20 09:20:45;;;;;;;2.75;1.25;;;;;;;13.87;47.34;94759.91;4206418;28;20048;-67
2022/09/20 09:23:07;;;;;;;2.65;1.73;;;;;;;13.27;47.69;94774.59;4209685;28;20117;-68
2022/09/20 09:25:36;;;;;;;3.13;1.90;;;;;;;13.28;47.98;94760.47;4206171;28;20086;-66
2022/09/20 09:27:54;;;;;;;7.78;2.33;;;;;;;13.23;48.10;94749.66;4211191;28;20083;-68
2022/09/20 09:29:55;;;;;;;2.88;1.80;;;;;;;13.27;48.02;94745.66;4209091;28;20082;-69
2022/09/20 09:32:17;;;;;;;3.75;1.70;;;;;;;13.27;47.76;94743.03;4210244;28;20052;-67
2022/09/20 09:34:34;;;;;;;3.50;1.60;;;;;;;13.23;48.17;94749.66;4198873;28;20052;-66
2022/09/20 09:36:42;;;;;;;2.10;1.38;;;;;;;13.34;48.25;94748.47;4208405;28;20052;-69
2022/09/20 09:38:45;;;;;;;6.55;1.85;;;;;;;13.66;47.63;94742.16;4210007;28;20044;-66
2022/09/20 09:41:01;;;;;;;3.35;1.50;;;;;;;13.80;47.67;94727.38;4195215;28;20128;-66
2022/09/20 09:43:03;;;;;;;3.70;1.17;;;;;;;13.82;47.23;94734.09;4204167;28;20101;-66
2022/09/20 09:45:12;;;;;;;2.38;1.60;;;;;;;13.72;47.43;94738.78;4208199;28;20072;-66
2022/09/20 09:47:36;;;;;;;1.40;1.00;;;;;;;13.47;47.05;94730.28;4195104;28;20059;-68
2022/09/20 09:49:54;;;;;;;3.13;1.40;;;;;;;13.55;47.67;94737.28;4202953;28;20171;-70
2022/09/20 09:52:14;;;;;;;5.20;1.48;;;;;;;13.87;47.07;94734.41;4209639;28;20455;-68
2022/09/20 09:54:18;;;;;;;4.80;1.75;;;;;;;14.19;46.39;94739.53;4200103;28;20087;-70
2022/09/20 09:56:42;;;;;;;4.95;1.63;;;;;;;14.56;45.04;94741.28;4200911;28;20112;-67
2022/09/20 09:58:53;;;;;;;1.50;1.08;;;;;;;14.89;44.32;94733.00;4196747;28;20087;-65
2022/09/20 10:00:58;;;;;;;1.17;0.75;;;;;;;15.38;43.15;94726.22;4204250;28;20058;-66
2022/09/20 10:03:18;;;;;;;2.05;1.23;;;;;;;15.45;42.49;94727.91;4194945;28;20076;-67
2022/09/20 10:05:26;;;;;;;2.20;1.05;;;;;;;15.61;42.54;94726.03;4197376;28;20492;-68
2022/09/20 10:08:01;;;;;;;1.30;0.90;;;;;;;15.94;41.61;94724.53;4209915;28;20052;-68
2022/09/20 10:10:15;;;;;;;1.33;0.75;;;;;;;15.99;40.46;94712.56;4194218;28;20048;-68
2022/09/20 10:12:29;;;;;;;1.67;1.00;;;;;;;16.18;41.00;94722.47;4210098;28;20084;-67
2022/09/20 10:14:43;;;;;;;2.13;1.30;;;;;;;16.22;41.40;94729.00;4200706;28;20591;-66
2022/09/20 10:17:03;;;;;;;5.93;1.30;;;;;;;16.19;40.99;94734.66;4206126;28;20183;-67
2022/09/20 10:19:30;;;;;;;2.55;1.00;;;;;;;16.21;40.47;94718.59;4197552;28;20081;-66
2022/09/20 10:21:42;;;;;;;2.13;0.80;;;;;;;16.24;40.52;94723.50;4197451;28;20535;-66
2022/09/20 10:23:56;;;;;;;1.92;0.73;;;;;;;16.17;40.65;94716.38;4197719;28;20139;-67
2022/09/20 10:26:25;;;;;;;1.42;0.90;;;;;;;16.40;40.28;94725.84;4200662;28;20044;-69
2022/09/20 10:28:47;;;;;;;0.90;0.60;;;;;;;16.59;39.23;94719.84;4213413;28;20135;-68
2022/09/20 10:31:10;;;;;;;0.93;0.60;;;;;;;16.65;39.11;94723.56;4213573;28;20048;-67
2022/09/20 10:33:21;;;;;;;3.03;0.90;;;;;;;16.68;38.87;94720.50;4212915;28;20071;-69